Latest Weather Observations for Coolangatta

IDN60801

Issued at 10:42 am EDT Saturday 15 December 2018 (issued every 10 minutes, with the page automatically refreshed every 10 minutes)

About weather observations | Map of weather stations | Latest weather observations for NSW | Other Formats
Station Details ID: 040717 Name: COOLANGATTA Lat: -28.17 Lon: 153.51 Height: 4.0 m
Data from the previous 72 hours. | See also: Recent months at Coolangatta
Date/Time
EDT
Temp
°C
App
Temp
°C
Dew
Point
°C
Rel
Hum
%
Delta-T
°C
Wind Press
QNH
hPa
Press
MSL
hPa
Rain since
9am
mm
Dir  Spd
km/h
Gust
km/h
Spd
kts
Gust
kts
15/10:30am 28.1 28.4 22.3 70 3.9 N 24 33 13 18 1009.4 1009.3 0.0
15/10:00am 26.8 25.6 22.2 76 3.1 N 32 39 17 21 1009.3 1009.2 1.4
15/09:30am 26.7 25.4 22.5 78 2.8 N 33 43 18 23 1009.4 1009.3 1.2
15/09:00am 26.1 24.3 21.1 74 3.3 N 32 43 17 23 1009.3 1009.2 1.2
15/08:30am 26.4 25.3 21.8 76 3.1 NNW 30 44 16 24 1009.2 1009.1 1.2
15/08:03am 25.0 23.8 21.5 81 2.3 NNW 30 41 16 22 1009.1 1009.0 1.0
15/08:00am 24.8 23.5 21.3 81 2.3 NNW 30 41 16 22 1009.1 1009.0 1.0
15/07:33am 24.2 24.6 21.7 86 1.7 NNW 22 37 12 20 1008.8 1008.7 1.0
15/07:30am 24.2 25.0 21.7 86 1.7 NNW 20 37 11 20 1008.8 1008.7 1.0
15/07:00am 24.0 25.1 21.3 85 1.8 NNW 17 26 9 14 1008.4 1008.3 1.0
15/06:30am 24.1 25.2 21.2 84 1.9 NNW 17 30 9 16 1007.4 1007.3 1.0
15/06:00am 24.1 25.0 22.0 88 1.4 N 20 28 11 15 1007.6 1007.5 1.0
15/05:50am 24.1 24.4 22.2 89 1.3 N 24 35 13 19 1007.1 1007.0 1.0
15/05:30am 24.2 23.1 22.5 90 1.1 NNE 32 46 17 25 1006.7 1006.6 1.0
15/05:00am 24.2 24.3 23.2 94 0.7 NNE 28 35 15 19 1007.0 1006.9 1.0
15/04:30am 24.2 23.6 23.3 95 0.6 NNE 32 41 17 22 1006.4 1006.3 1.0
15/04:00am 23.8 25.4 23.3 97 0.3 N 20 30 11 16 1006.3 1006.2 1.0
15/03:30am 23.4 24.9 22.7 96 0.5 NNW 19 26 10 14 1005.8 1005.7 1.0
15/03:00am 23.6 26.8 23.1 97 0.3 NW 11 15 6 8 1006.4 1006.3 1.0
15/02:30am 24.0 25.4 23.5 97 0.3 N 22 28 12 15 1006.4 1006.3 1.0
15/02:00am 24.0 24.8 23.8 99 0.1 NNE 26 33 14 18 1007.1 1007.0 1.0
15/01:30am 24.0 25.1 23.7 98 0.2 NNE 24 30 13 16 1007.1 1007.0 1.0
15/01:00am 23.8 25.2 23.5 98 0.2 N 22 32 12 17 1007.5 1007.4 1.0
15/12:41am 23.8 24.5 23.6 99 0.1 N 26 32 14 17 1007.5 1007.4 1.0
15/12:30am 23.8 24.9 23.6 99 0.1 N 24 33 13 18 1007.3 1007.2 1.0
15/12:00am 24.0 25.0 23.5 97 0.3 N 24 35 13 19 1007.8 1007.7 0.6
 
Date/Time
EDT
Temp
°C
App
Temp
°C
Dew
Point
°C
Rel
Hum
%
Delta-T
°C
Wind Press
QNH
hPa
Press
MSL
hPa
Rain since
9am
mm
Dir  Spd
km/h
Gust
km/h
Spd
kts
Gust
kts
14/11:30pm 24.1 25.9 23.6 97 0.3 N 20 26 11 14 1007.6 1007.5 0.4
14/11:09pm 24.2 25.6 23.5 96 0.5 N 22 30 12 16 1007.7 1007.6 0.4
14/11:00pm 24.3 25.7 23.6 96 0.5 N 22 30 12 16 1007.7 1007.6 0.4
14/10:54pm 24.4 25.8 23.5 95 0.6 N 22 28 12 15 1007.7 1007.6 0.4
14/10:37pm 24.4 26.0 23.2 93 0.8 N 20 26 11 14 1007.7 1007.6 0.0
14/10:30pm 24.3 25.8 23.1 93 0.8 N 20 24 11 13 1007.6 1007.5 0.0
14/10:05pm 24.2 25.7 23.0 93 0.8 N 20 24 11 13 1007.4 1007.3 0.0
14/10:00pm 24.3 25.7 22.9 92 0.9 N 20 26 11 14 1007.4 1007.3 0.0
14/09:30pm 24.5 27.4 23.1 92 0.9 NNW 13 20 7 11 1007.2 1007.1 0.0
14/09:00pm 24.4 27.1 22.8 91 1.1 NNW 13 20 7 11 1007.2 1007.1 0.0
14/08:30pm 24.6 26.5 22.7 89 1.3 N 17 22 9 12 1007.5 1007.4 0.0
14/08:00pm 24.5 27.5 22.6 89 1.3 NNW 11 15 6 8 1007.3 1007.2 0.0
14/07:56pm 24.5 27.1 22.6 89 1.3 N 13 15 7 8 1007.2 1007.1 0.0
14/07:30pm 24.5 25.5 22.2 87 1.5 N 20 26 11 14 1006.2 1006.1 0.0
14/07:00pm 24.8 25.0 22.1 85 1.8 N 24 32 13 17 1005.6 1005.5 0.0
14/06:30pm 24.8 24.4 22.3 86 1.7 N 28 39 15 21 1005.1 1005.0 0.0
14/06:00pm 25.2 25.3 22.5 85 1.8 NNE 26 35 14 19 1005.1 1005.0 0.0
14/05:30pm 25.3 26.0 22.2 83 2.1 NNE 22 30 12 16 1004.7 1004.6 0.0
14/05:00pm 25.6 24.7 21.5 78 2.7 NE 28 37 15 20 1003.8 1003.7 0.0
14/04:30pm 26.6 26.1 21.4 73 3.5 NNE 26 35 14 19 1004.0 1003.9 0.0
14/04:00pm 27.2 27.7 21.9 73 3.6 NNE 22 30 12 16 1004.4 1004.3 0.0
14/03:30pm 27.7 28.4 22.9 75 3.3 NNE 24 30 13 16 1004.5 1004.4 0.0
14/03:00pm 28.1 28.7 22.8 73 3.6 NNE 24 32 13 17 1004.8 1004.7 0.0
14/02:30pm 27.3 26.6 21.8 72 3.7 NNE 28 33 15 18 1004.9 1004.8 0.0
14/02:00pm 27.3 27.3 21.6 71 3.8 NNE 24 32 13 17 1004.9 1004.8 0.0
14/01:30pm 26.7 26.5 21.2 72 3.6 NNE 24 30 13 16 1005.0 1004.9 0.0
14/01:00pm 26.1 26.5 20.9 73 3.4 N 20 28 11 15 1005.2 1005.1 0.0
14/12:30pm 26.3 26.1 20.6 71 3.7 N 22 26 12 14 1005.2 1005.1 0.0
14/12:00pm 26.4 24.7 20.5 70 3.9 N 30 35 16 19 1005.1 1005.0 0.0
14/11:30am 25.1 25.8 22.2 84 1.9 N 22 26 12 14 1005.6 1005.5 0.0
14/11:00am 25.1 25.6 22.0 83 2.1 N 22 30 12 16 1005.7 1005.6 0.0
14/10:30am 24.8 24.2 21.9 84 1.9 N 28 33 15 18 1005.6 1005.5 0.0
14/10:00am 25.2 25.8 22.1 83 2.1 N 22 28 12 15 1005.5 1005.4 0.0
14/09:30am 25.0 25.6 22.1 84 1.9 N 22 30 12 16 1005.2 1005.1 0.0
14/09:00am 25.1 25.4 21.6 81 2.3 N 22 28 12 15 1005.2 1005.1 0.0
14/08:30am 25.6 25.4 21.3 77 2.8 N 24 32 13 17 1005.5 1005.4 0.0
14/08:00am 25.4 25.1 21.1 77 2.8 N 24 32 13 17 1005.5 1005.4 0.0
14/07:30am 25.1 25.7 21.0 78 2.7 NNW 19 26 10 14 1005.8 1005.7 0.0
14/07:00am 24.5 24.1 21.0 81 2.3 N 24 28 13 15 1005.0 1004.9 0.0
14/06:30am 24.3 24.5 20.6 80 2.4 NNW 20 28 11 15 1005.0 1004.9 0.0
14/06:00am 24.3 24.4 20.4 79 2.5 NNW 20 28 11 15 1004.6 1004.5 0.0
14/05:30am 23.9 24.1 20.6 82 2.2 NNW 20 28 11 15 1004.4 1004.3 0.0
14/05:00am 24.0 24.7 21.5 86 1.7 NNW 20 28 11 15 1004.0 1003.9 0.0
14/04:30am 24.0 23.6 21.7 87 1.5 N 26 32 14 17 1003.8 1003.7 0.0
14/04:00am 23.8 23.6 21.3 86 1.7 N 24 32 13 17 1004.1 1004.0 0.0
14/03:30am 23.7 23.6 21.4 87 1.5 N 24 30 13 16 1004.2 1004.1 0.0
14/03:00am 23.7 23.8 21.2 86 1.6 N 22 30 12 16 1004.6 1004.5 0.0
14/02:30am 24.0 23.5 21.5 86 1.7 N 26 33 14 18 1004.6 1004.5 0.0
14/02:00am 24.0 24.3 21.5 86 1.7 N 22 30 12 16 1004.8 1004.7 0.0
14/01:30am 23.9 25.2 21.6 87 1.5 N 17 20 9 11 1005.6 1005.5 0.0
14/01:00am 24.4 25.9 21.3 83 2.0 N 15 20 8 11 1006.1 1006.0 0.0
14/12:30am 24.2 25.4 20.7 81 2.3 N 15 19 8 10 1006.1 1006.0 0.0
14/12:00am 24.4 24.9 20.9 81 2.3 N 19 24 10 13 1006.3 1006.2 0.0
 
Date/Time
EDT
Temp
°C
App
Temp
°C
Dew
Point
°C
Rel
Hum
%
Delta-T
°C
Wind Press
QNH
hPa
Press
MSL
hPa
Rain since
9am
mm
Dir  Spd
km/h
Gust
km/h
Spd
kts
Gust
kts
13/11:30pm 24.5 24.5 21.0 81 2.3 N 22 30 12 16 1006.6 1006.5 0.0
13/11:00pm 24.4 23.1 20.7 80 2.4 N 28 35 15 19 1006.8 1006.7 0.0
13/10:30pm 24.4 23.5 20.7 80 2.4 N 26 35 14 19 1006.9 1006.8 0.0
13/10:00pm 24.5 22.9 20.8 80 2.4 N 30 37 16 20 1006.8 1006.7 0.0
13/09:30pm 24.5 23.0 21.0 81 2.3 N 30 37 16 20 1006.7 1006.6 0.0
13/09:00pm 24.5 22.8 21.4 83 2.1 N 32 39 17 21 1006.5 1006.4 0.0
13/08:30pm 24.5 22.5 21.2 82 2.2 N 33 41 18 22 1006.7 1006.6 0.0
13/08:00pm 24.6 22.4 20.7 79 2.6 N 33 44 18 24 1006.4 1006.3 0.0
13/07:30pm 24.7 21.8 20.8 79 2.6 N 37 44 20 24 1006.0 1005.9 0.0
13/07:00pm 24.8 22.3 20.9 79 2.6 N 35 43 19 23 1005.3 1005.2 0.0
13/06:30pm 24.9 22.4 20.8 78 2.7 N 35 46 19 25 1005.0 1004.9 0.0
13/06:00pm 25.2 23.0 20.7 76 3.0 N 33 41 18 22 1004.9 1004.8 0.0
13/05:30pm 25.5 22.4 20.5 74 3.3 N 37 46 20 25 1004.7 1004.6 0.0
13/05:00pm 25.7 23.2 20.9 75 3.2 NNE 35 46 19 25 1004.4 1004.3 0.0
13/04:30pm 26.1 22.7 20.7 72 3.5 NNE 39 50 21 27 1004.4 1004.3 0.0
13/04:00pm 26.1 22.4 20.7 72 3.6 N 41 48 22 26 1005.1 1005.0 0.0
13/03:30pm 27.2 24.1 21.2 69 4.0 N 39 48 21 26 1005.4 1005.3 0.0
13/03:00pm 26.9 23.4 20.5 68 4.2 N 39 48 21 26 1006.1 1006.0 0.0
13/02:30pm 27.5 24.3 21.1 68 4.2 N 39 52 21 28 1006.4 1006.3 0.0
13/02:00pm 28.3 25.9 21.1 65 4.8 N 35 48 19 26 1007.0 1006.9 0.0
13/01:30pm 27.5 24.7 20.3 65 4.7 N 35 44 19 24 1007.3 1007.2 0.0
13/01:00pm 27.3 24.8 20.1 64 4.7 NNE 33 43 18 23 1007.6 1007.5 0.0
13/12:30pm 27.0 24.4 19.9 65 4.6 NNE 33 43 18 23 1008.1 1008.0 0.0
13/12:00pm 27.3 24.2 18.3 58 5.7 N 32 43 17 23 1008.5 1008.4 0.0
13/11:30am 27.6 25.3 19.4 61 5.3 N 30 37 16 20 1008.6 1008.5 0.0
13/11:00am 27.4 25.7 19.7 63 5.0 N 28 37 15 20 1008.9 1008.8 0.0
13/10:30am 26.8 24.8 19.2 63 4.9 N 28 35 15 19 1009.0 1008.9 0.0
13/10:00am 26.5 24.5 19.1 64 4.8 N 28 35 15 19 1009.2 1009.1 0.0
13/09:30am 26.1 24.9 19.2 65 4.4 N 24 32 13 17 1009.7 1009.6 0.0
13/09:00am 25.5 23.7 17.9 63 4.8 N 24 30 13 16 1009.9 1009.8 0.0
13/08:30am 25.0 23.5 17.7 64 4.6 N 22 32 12 17 1009.8 1009.7 0.0
13/08:00am 24.4 23.3 17.4 65 4.4 NNW 19 28 10 15 1009.8 1009.7 0.0
13/07:30am 23.9 23.3 17.6 68 3.9 NNW 17 28 9 15 1009.8 1009.7 0.0
13/07:00am 22.8 23.0 17.7 73 3.2 NW 13 20 7 11 1009.7 1009.6 0.0
13/06:30am 22.6 23.3 17.9 75 2.9 NNW 11 17 6 9 1009.4 1009.3 0.0
13/06:00am 22.5 22.4 17.8 75 2.9 NNW 15 20 8 11 1009.2 1009.1 0.0
13/05:30am 22.5 22.9 18.1 76 2.7 NNW 13 20 7 11 1009.5 1009.4 0.0
13/05:00am 22.4 22.7 18.0 76 2.7 NNW 13 17 7 9 1009.5 1009.4 0.0
13/04:30am 22.5 22.9 18.1 76 2.7 NNW 13 17 7 9 1009.5 1009.4 0.0
13/04:00am 22.6 23.0 18.2 76 2.8 NNW 13 17 7 9 1009.5 1009.4 0.0
13/03:30am 22.7 23.3 18.5 77 2.6 NNW 13 19 7 10 1009.4 1009.3 0.0
13/03:00am 22.9 23.0 18.4 76 2.8 NNW 15 20 8 11 1010.0 1009.9 0.0
13/02:30am 22.7 23.4 18.9 79 2.4 NW 13 19 7 10 1010.2 1010.1 0.0
13/02:00am 23.3 21.7 19.2 78 2.6 N 26 33 14 18 1010.5 1010.4 0.0
13/01:30am 23.3 22.4 19.0 77 2.7 N 22 28 12 15 1010.6 1010.5 0.0
13/01:00am 23.2 21.8 18.9 77 2.7 N 24 30 13 16 1011.1 1011.0 0.0
13/12:30am 23.3 21.9 18.8 76 2.8 N 24 28 13 15 1011.2 1011.1 0.0
13/12:00am 23.4 22.3 18.7 75 3.0 N 22 28 12 15 1011.6 1011.5 0.0
 
Date/Time
EDT
Temp
°C
App
Temp
°C
Dew
Point
°C
Rel
Hum
%
Delta-T
°C
Wind Press
QNH
hPa
Press
MSL
hPa
Rain since
9am
mm
Dir  Spd
km/h
Gust
km/h
Spd
kts
Gust
kts
12/11:30pm 23.4 22.6 18.1 72 3.3 N 19 24 10 13 1012.0 1011.9 0.0
12/11:00pm 23.4 23.7 17.8 71 3.5 N 13 17 7 9 1012.2 1012.1 0.0
12/10:30pm 23.5 22.7 17.9 71 3.5 N 19 22 10 12 1012.4 1012.3 0.0
12/10:00pm 23.4 23.2 17.6 70 3.6 N 15 20 8 11 1012.7 1012.6 0.0
12/09:30pm 23.4 23.7 17.8 71 3.5 N 13 17 7 9 1012.8 1012.7 0.0
12/09:00pm 23.5 24.1 17.7 70 3.6 N 11 15 6 8 1013.3 1013.2 0.0
12/08:30pm 23.7 24.0 17.9 70 3.6 NNE 13 17 7 9 1013.1 1013.0 0.0
12/08:00pm 23.7 23.5 17.7 69 3.7 NNE 15 17 8 9 1012.7 1012.6 0.0
12/07:30pm 23.8 23.7 17.8 69 3.7 NNE 15 20 8 11 1012.3 1012.2 0.0
12/07:00pm 23.9 23.3 17.6 68 3.9 NE 17 20 9 11 1012.2 1012.1 0.0
12/06:30pm 24.1 23.4 17.4 66 4.2 NE 17 20 9 11 1011.8 1011.7 0.0
12/06:00pm 24.9 24.1 17.1 62 4.8 NE 17 20 9 11 1011.7 1011.6 0.0
12/05:30pm 25.1 23.8 16.8 60 5.1 ENE 19 24 10 13 1011.5 1011.4 0.0
12/05:00pm 25.4 23.7 16.3 57 5.6 NE 20 26 11 14 1011.4 1011.3 0.0
12/04:30pm 26.1 25.1 17.5 59 5.4 ENE 19 24 10 13 1011.5 1011.4 0.0
12/04:00pm 25.7 24.7 17.9 62 4.9 ENE 20 24 11 13 1011.7 1011.6 0.0
12/03:30pm 26.4 25.4 18.0 60 5.3 ENE 20 26 11 14 1011.9 1011.8 0.0
12/03:00pm 26.2 25.3 17.8 60 5.3 NE 19 26 10 14 1012.5 1012.4 0.0
12/02:30pm 26.4 25.1 17.2 57 5.7 ENE 20 26 11 14 1012.7 1012.6 0.0
12/02:00pm 26.2 25.2 17.6 59 5.4 ENE 19 26 10 14 1013.3 1013.2 0.0
12/01:30pm 26.6 25.5 17.4 57 5.8 NE 19 26 10 14 1013.6 1013.5 0.0
12/01:00pm 26.2 25.0 17.0 57 5.7 NE 19 26 10 14 1014.0 1013.9 0.0
12/12:30pm 26.2 25.3 17.8 60 5.3 NE 19 24 10 13 1014.0 1013.9 0.0
12/12:00pm 26.2 25.3 18.3 61 5.0 ENE 20 26 11 14 1014.3 1014.2 0.0

Other Formats:

Comma delimited format used in spreadsheet applications
http://www.bom.gov.au/fwo/IDN60801/IDN60801.94592.axf

JavaScript Object Notation format (JSON) in row-major order
http://www.bom.gov.au/fwo/IDN60801/IDN60801.94592.json